createdAt,value
2019-02-14T00:01:12.960Z,68.60
2019-02-14T00:03:44.205Z,68.41
2019-02-14T00:06:15.735Z,68.32
2019-02-14T00:08:47.244Z,68.17
2019-02-14T00:11:18.685Z,67.89
2019-02-14T00:13:51.172Z,67.87
2019-02-14T00:16:22.703Z,68.14
2019-02-14T00:18:53.995Z,68.66
2019-02-14T00:21:25.269Z,69.20
2019-02-14T00:23:56.755Z,69.33
2019-02-14T00:26:27.944Z,69.94
2019-02-14T00:28:59.123Z,69.32
2019-02-14T00:31:32.900Z,69.56
2019-02-14T00:34:04.363Z,69.59
2019-02-14T00:36:35.591Z,69.91
2019-02-14T00:39:07.573Z,69.68
2019-02-14T00:41:39.984Z,70.53
2019-02-14T00:44:11.460Z,70.30
2019-02-14T00:46:42.664Z,70.75
2019-02-14T00:49:14.323Z,70.89
2019-02-14T00:51:46.122Z,71.35
2019-02-14T00:54:17.498Z,71.25
2019-02-14T00:56:49.084Z,71.36
2019-02-14T00:59:20.280Z,71.40
2019-02-14T01:01:51.730Z,71.61
2019-02-14T01:04:23.062Z,71.85
2019-02-14T01:06:54.724Z,72.14
2019-02-14T01:09:26.201Z,72.43
2019-02-14T01:11:57.437Z,72.32
2019-02-14T01:14:28.768Z,72.70
2019-02-14T01:16:59.980Z,73.18
2019-02-14T01:19:31.240Z,73.26
2019-02-14T01:22:02.417Z,73.16
2019-02-14T01:24:33.833Z,73.26
2019-02-14T01:27:05.070Z,73.29
2019-02-14T01:29:36.523Z,73.67
2019-02-14T01:32:08.721Z,73.88
2019-02-14T01:34:40.033Z,73.55
2019-02-14T01:37:11.382Z,73.57
2019-02-14T01:39:42.591Z,73.77
2019-02-14T01:42:13.778Z,73.84
2019-02-14T01:44:45.353Z,73.94
2019-02-14T01:47:18.203Z,73.98
2019-02-14T01:49:49.387Z,73.85
2019-02-14T01:52:20.877Z,74.47
2019-02-14T01:54:52.088Z,74.35
2019-02-14T01:57:23.541Z,74.80
2019-02-14T01:59:54.746Z,75.87
2019-02-14T02:02:26.352Z,76.40
2019-02-14T02:04:57.756Z,76.71
2019-02-14T02:07:29.183Z,77.01
2019-02-14T02:10:00.772Z,77.37
2019-02-14T02:12:32.261Z,77.88
2019-02-14T02:15:03.928Z,78.82
2019-02-14T02:17:35.930Z,79.17
2019-02-14T02:20:08.011Z,79.65
2019-02-14T02:22:39.704Z,79.99
2019-02-14T02:25:12.034Z,80.14
2019-02-14T02:27:43.619Z,80.05
2019-02-14T02:30:15.568Z,79.58
2019-02-14T02:32:47.085Z,79.24
2019-02-14T02:35:18.516Z,79.34
2019-02-14T02:37:50.044Z,79.52
2019-02-14T02:40:21.396Z,79.54
2019-02-14T02:42:52.648Z,79.63
2019-02-14T02:45:24.374Z,79.19
2019-02-14T02:47:56.012Z,79.73
2019-02-14T02:50:27.402Z,79.30
2019-02-14T02:52:58.648Z,79.05
2019-02-14T02:55:29.943Z,78.87
2019-02-14T02:58:01.264Z,78.82
2019-02-14T03:00:32.591Z,78.80
2019-02-14T03:03:04.295Z,79.00
2019-02-14T03:05:35.506Z,79.07
2019-02-14T03:08:07.048Z,78.95
2019-02-14T03:10:38.502Z,78.59
2019-02-14T03:13:10.987Z,78.30
2019-02-14T03:15:42.655Z,78.21
2019-02-14T03:18:13.880Z,78.11
2019-02-14T03:20:45.414Z,78.05
2019-02-14T03:23:16.861Z,78.45
2019-02-14T03:25:48.346Z,78.06
2019-02-14T03:28:19.892Z,77.63
2019-02-14T03:30:51.555Z,78.01
2019-02-14T03:33:23.049Z,78.32
2019-02-14T03:35:54.558Z,78.35
2019-02-14T03:38:26.011Z,78.68
2019-02-14T03:40:57.514Z,78.57
2019-02-14T03:43:28.913Z,78.51
2019-02-14T03:46:00.248Z,78.29
2019-02-14T03:48:31.502Z,78.65
2019-02-14T03:51:02.750Z,78.65
2019-02-14T03:53:34.111Z,78.61
2019-02-14T03:56:05.430Z,78.30
2019-02-14T03:58:36.780Z,78.25
2019-02-14T04:01:08.275Z,77.85
2019-02-14T04:03:40.946Z,77.89
2019-02-14T04:06:12.630Z,77.66
2019-02-14T04:08:44.211Z,77.68
2019-02-14T04:11:15.773Z,77.59
2019-02-14T04:13:47.420Z,77.48
2019-02-14T04:16:19.041Z,77.65
2019-02-14T04:18:50.391Z,77.15
2019-02-14T04:21:21.882Z,77.06
2019-02-14T04:23:53.215Z,77.09
2019-02-14T04:26:24.808Z,77.26
2019-02-14T04:28:56.370Z,77.04
2019-02-14T04:31:27.927Z,77.11
2019-02-14T04:33:59.542Z,77.34
2019-02-14T04:36:36.150Z,77.47
2019-02-14T04:39:05.609Z,77.21
2019-02-14T04:41:37.024Z,77.14
2019-02-14T04:44:08.484Z,76.67
2019-02-14T04:46:40.130Z,76.66
2019-02-14T04:49:11.614Z,76.65
2019-02-14T04:51:43.190Z,76.60
2019-02-14T04:54:14.590Z,76.30
2019-02-14T04:56:45.978Z,75.91
2019-02-14T04:59:17.466Z,75.57
2019-02-14T05:01:48.878Z,75.40
2019-02-14T05:04:20.425Z,74.55
2019-02-14T05:06:51.984Z,74.29
2019-02-14T05:09:23.538Z,73.73
2019-02-14T05:11:55.064Z,73.97
2019-02-14T05:14:26.575Z,74.47
2019-02-14T05:16:58.017Z,74.02
2019-02-14T05:19:29.277Z,73.85
2019-02-14T05:22:01.005Z,73.83
2019-02-14T05:24:32.643Z,73.55
2019-02-14T05:27:04.256Z,73.77
2019-02-14T05:29:35.542Z,73.46
2019-02-14T05:32:07.105Z,73.69
2019-02-14T05:34:38.640Z,73.88
2019-02-14T05:37:09.869Z,73.23
2019-02-14T05:39:41.277Z,73.07
2019-02-14T05:42:12.600Z,72.80
2019-02-14T05:44:43.958Z,72.79
2019-02-14T05:47:15.388Z,72.74
2019-02-14T05:49:46.894Z,72.30
2019-02-14T05:52:18.162Z,72.19
2019-02-14T05:54:49.652Z,72.00
2019-02-14T05:57:21.300Z,71.99
2019-02-14T05:59:52.856Z,72.17
2019-02-14T06:02:24.514Z,71.60
2019-02-14T06:04:56.056Z,71.32
2019-02-14T06:07:27.656Z,71.20
2019-02-14T06:09:59.052Z,71.17
2019-02-14T06:12:30.683Z,71.72
2019-02-14T06:15:02.320Z,71.83
2019-02-14T06:17:33.836Z,71.25
2019-02-14T06:20:05.847Z,70.09
2019-02-14T06:22:37.407Z,69.78
2019-02-14T06:25:08.952Z,68.87
2019-02-14T06:27:41.219Z,68.46
2019-02-14T06:30:13.650Z,67.25
2019-02-14T06:32:45.249Z,66.70
2019-02-14T06:35:16.758Z,66.43
2019-02-14T06:37:48.330Z,65.79
2019-02-14T06:40:20.088Z,64.53
2019-02-14T06:42:51.446Z,64.06
2019-02-14T06:45:22.759Z,63.55
2019-02-14T06:47:54.157Z,62.90
2019-02-14T06:50:25.689Z,63.61
2019-02-14T06:52:57.232Z,62.69
2019-02-14T06:55:28.612Z,61.81
2019-02-14T06:58:00.426Z,60.69
2019-02-14T07:00:31.910Z,60.70
2019-02-14T07:03:03.669Z,59.70
2019-02-14T07:05:35.463Z,60.04
2019-02-14T07:08:07.028Z,59.44
2019-02-14T07:10:38.558Z,59.85
2019-02-14T07:13:10.076Z,60.57
2019-02-14T07:15:41.679Z,62.27
2019-02-14T07:18:12.941Z,61.71
2019-02-14T07:20:44.358Z,62.46
2019-02-14T07:23:15.595Z,61.94
2019-02-14T07:25:47.231Z,61.28
2019-02-14T07:28:18.637Z,61.92
2019-02-14T07:30:50.501Z,61.79
2019-02-14T07:33:21.981Z,60.73
2019-02-14T07:35:53.584Z,61.19
2019-02-14T07:38:25.060Z,61.68
2019-02-14T07:40:56.753Z,61.58
2019-02-14T07:43:28.357Z,62.19
2019-02-14T07:45:59.588Z,60.99
2019-02-14T07:48:30.800Z,61.21
2019-02-14T07:51:02.105Z,60.27
2019-02-14T07:53:33.331Z,59.80
2019-02-14T07:56:04.806Z,59.09
2019-02-14T07:58:36.135Z,59.61
2019-02-14T08:01:07.961Z,58.78
2019-02-14T08:03:39.233Z,58.32
2019-02-14T08:06:10.548Z,58.41
2019-02-14T08:08:41.880Z,58.01
2019-02-14T08:11:13.642Z,57.58
2019-02-14T08:13:44.960Z,58.42
2019-02-14T08:16:16.520Z,59.17
2019-02-14T08:18:48.267Z,59.01
2019-02-14T08:21:19.530Z,57.96
2019-02-14T08:23:51.024Z,58.63
2019-02-14T08:26:22.512Z,57.66
2019-02-14T08:28:54.380Z,57.80
2019-02-14T08:31:25.675Z,57.75
2019-02-14T08:33:57.243Z,56.35
2019-02-14T08:36:28.988Z,56.09
2019-02-14T08:39:00.674Z,56.35
2019-02-14T08:41:33.847Z,56.30
2019-02-14T08:44:05.378Z,55.48
2019-02-14T08:46:36.991Z,55.48
2019-02-14T08:49:08.599Z,55.28
2019-02-14T08:51:40.375Z,55.61
2019-02-14T08:54:11.942Z,54.86
2019-02-14T08:56:43.657Z,54.48
2019-02-14T08:59:15.331Z,55.31
2019-02-14T09:01:47.049Z,55.92
2019-02-14T09:04:18.598Z,54.92
2019-02-14T09:06:50.285Z,54.96
2019-02-14T09:09:21.944Z,53.81
2019-02-14T09:11:53.545Z,53.90
2019-02-14T09:14:25.120Z,53.09
2019-02-14T09:16:56.768Z,55.03
2019-02-14T09:19:28.159Z,55.17
2019-02-14T09:21:59.655Z,55.68
2019-02-14T09:24:30.908Z,54.53
2019-02-14T09:27:02.318Z,53.52
2019-02-14T09:29:33.775Z,54.33
2019-02-14T09:32:05.559Z,53.88
2019-02-14T09:34:37.237Z,52.74
2019-02-14T09:37:08.683Z,52.26
2019-02-14T09:39:41.066Z,51.73
2019-02-14T09:42:12.540Z,52.62
2019-02-14T09:44:43.886Z,52.23
2019-02-14T09:47:15.201Z,51.68
2019-02-14T09:49:46.587Z,51.89
2019-02-14T09:52:18.036Z,51.53
2019-02-14T09:54:49.456Z,50.66
2019-02-14T09:57:21.208Z,50.30
2019-02-14T09:59:52.781Z,51.55
2019-02-14T10:02:25.798Z,51.99
2019-02-14T10:04:57.392Z,50.18
2019-02-14T10:07:28.964Z,49.52
2019-02-14T10:10:00.641Z,51.16
2019-02-14T10:12:32.083Z,50.46
2019-02-14T10:15:03.973Z,50.92
2019-02-14T10:17:35.240Z,51.06
2019-02-14T10:20:07.922Z,50.29
2019-02-14T10:22:39.674Z,51.08
2019-02-14T10:25:11.569Z,50.86
2019-02-14T10:27:42.912Z,49.99
2019-02-14T10:30:16.538Z,51.03
2019-02-14T10:32:47.952Z,50.96
2019-02-14T10:35:19.557Z,51.08
2019-02-14T10:37:50.834Z,49.09
2019-02-14T10:40:22.135Z,50.21
2019-02-14T10:42:53.662Z,50.17
2019-02-14T10:45:26.010Z,51.33
2019-02-14T10:47:57.404Z,51.08
2019-02-14T10:50:28.913Z,51.45
2019-02-14T10:53:00.484Z,50.46
2019-02-14T10:55:31.981Z,51.62
2019-02-14T10:58:03.798Z,51.11
2019-02-14T11:00:35.579Z,51.30
2019-02-14T11:03:07.362Z,49.97
2019-02-14T11:05:38.891Z,51.06
2019-02-14T11:08:10.309Z,50.26
2019-02-14T11:10:41.660Z,50.45
2019-02-14T11:13:13.007Z,48.92
2019-02-14T11:15:44.237Z,50.06
2019-02-14T11:18:15.685Z,50.19
2019-02-14T11:20:47.085Z,50.40
2019-02-14T11:23:18.394Z,50.85
2019-02-14T11:25:49.788Z,50.40
2019-02-14T11:28:21.356Z,49.34
2019-02-14T11:30:52.970Z,49.83
2019-02-14T11:33:24.194Z,50.71
2019-02-14T11:35:55.729Z,51.83
2019-02-14T11:38:27.107Z,52.08
2019-02-14T11:40:58.686Z,52.50
2019-02-14T11:43:30.102Z,52.40
2019-02-14T11:46:01.484Z,52.84
2019-02-14T11:48:32.672Z,53.26
2019-02-14T11:51:03.919Z,53.13
2019-02-14T11:53:35.360Z,53.41
2019-02-14T11:56:06.679Z,53.37
2019-02-14T11:58:38.232Z,52.51
2019-02-14T12:01:09.850Z,51.43
2019-02-14T12:03:41.556Z,52.07
2019-02-14T12:06:17.616Z,52.63
2019-02-14T12:08:57.877Z,51.07
2019-02-14T12:11:19.057Z,50.77
2019-02-14T12:13:50.793Z,51.08
2019-02-14T12:16:22.014Z,51.99
2019-02-14T12:18:53.568Z,52.22
2019-02-14T12:21:24.877Z,51.39
2019-02-14T12:23:56.379Z,52.57
2019-02-14T12:26:27.723Z,52.85
2019-02-14T12:28:59.234Z,53.22
2019-02-14T12:31:30.521Z,53.09
2019-02-14T12:34:03.457Z,53.08
2019-02-14T12:36:35.231Z,53.69
2019-02-14T12:39:09.971Z,54.61
2019-02-14T12:41:40.549Z,55.94
2019-02-14T12:44:11.862Z,57.49
2019-02-14T12:46:43.499Z,57.59
2019-02-14T12:49:15.107Z,59.07
2019-02-14T12:51:46.825Z,60.40
2019-02-14T12:54:18.511Z,60.81
2019-02-14T12:56:49.950Z,60.78
2019-02-14T12:59:21.454Z,60.30
2019-02-14T13:01:53.018Z,61.64
2019-02-14T13:04:24.580Z,62.11
2019-02-14T13:06:55.834Z,62.48
2019-02-14T13:09:27.283Z,61.95
2019-02-14T13:11:58.821Z,62.13
2019-02-14T13:14:30.176Z,62.45
2019-02-14T13:17:01.710Z,62.55
2019-02-14T13:19:33.284Z,62.58
2019-02-14T13:22:04.482Z,62.25
2019-02-14T13:24:35.807Z,62.26
2019-02-14T13:27:07.405Z,63.68
2019-02-14T13:29:38.896Z,64.28
2019-02-14T13:32:10.306Z,63.67
2019-02-14T13:34:41.582Z,63.74
2019-02-14T13:37:13.056Z,63.68
2019-02-14T13:39:44.538Z,64.13
2019-02-14T13:42:16.298Z,64.49
2019-02-14T13:44:47.878Z,65.26
2019-02-14T13:47:19.243Z,65.22
2019-02-14T13:49:50.814Z,65.23
2019-02-14T13:52:22.305Z,65.50
2019-02-14T13:54:53.921Z,66.39
2019-02-14T13:57:25.684Z,66.34
2019-02-14T13:59:57.271Z,67.00
2019-02-14T14:02:28.916Z,67.11
2019-02-14T14:05:00.442Z,67.18
2019-02-14T14:07:40.185Z,67.62
2019-02-14T14:10:05.437Z,67.62
2019-02-14T14:12:37.139Z,67.31
2019-02-14T14:15:08.949Z,67.63
2019-02-14T14:17:40.821Z,67.69
2019-02-14T14:20:12.560Z,68.17
2019-02-14T14:22:44.242Z,67.73
2019-02-14T14:25:16.069Z,67.17
2019-02-14T14:27:47.563Z,67.42
2019-02-14T14:30:18.781Z,67.98
2019-02-14T14:32:50.176Z,67.14
2019-02-14T14:35:21.526Z,67.86
2019-02-14T14:37:52.846Z,68.08
2019-02-14T14:40:24.257Z,68.11
2019-02-14T14:43:25.091Z,68.09
2019-02-14T14:46:12.770Z,68.42
2019-02-14T14:48:44.377Z,68.97
2019-02-14T14:51:16.201Z,69.06
2019-02-14T14:53:47.607Z,69.46
2019-02-14T14:56:19.045Z,69.24
2019-02-14T14:58:50.461Z,69.61
2019-02-14T15:01:22.683Z,69.46
2019-02-14T15:03:55.145Z,69.58
2019-02-14T15:06:26.468Z,69.57
2019-02-14T15:08:58.019Z,69.33
2019-02-14T15:11:29.323Z,69.27
2019-02-14T15:14:01.778Z,69.84
2019-02-14T15:16:33.192Z,70.00
2019-02-14T15:19:04.766Z,70.17
2019-02-14T15:21:37.083Z,70.13
2019-02-14T15:24:08.672Z,69.97
2019-02-14T15:26:40.229Z,70.23
2019-02-14T15:29:11.968Z,70.35
2019-02-14T15:31:43.232Z,70.46
2019-02-14T15:34:14.559Z,70.46
2019-02-14T15:36:47.294Z,70.46
2019-02-14T15:39:19.474Z,70.57
2019-02-14T15:41:50.905Z,70.79
2019-02-14T15:44:22.515Z,70.71
2019-02-14T15:46:53.994Z,70.71
2019-02-14T15:49:25.504Z,70.81
2019-02-14T15:51:57.032Z,70.90
2019-02-14T15:54:28.563Z,71.17
2019-02-14T15:56:59.975Z,71.74
2019-02-14T15:59:31.663Z,71.39
2019-02-14T16:02:03.893Z,71.94
2019-02-14T16:04:36.012Z,72.05
2019-02-14T16:07:07.401Z,71.91
2019-02-14T16:09:41.260Z,71.94
2019-02-14T16:12:12.093Z,71.79
2019-02-14T16:14:44.804Z,72.36
2019-02-14T16:17:16.324Z,72.55
2019-02-14T16:19:47.799Z,72.17
2019-02-14T16:22:19.560Z,72.33
2019-02-14T16:24:50.930Z,72.59
2019-02-14T16:27:22.976Z,72.50
2019-02-14T16:29:55.147Z,73.06
2019-02-14T16:32:26.782Z,72.93
2019-02-14T16:34:58.099Z,73.08
2019-02-14T16:37:29.762Z,73.47
2019-02-14T16:40:01.224Z,73.74
2019-02-14T16:42:32.875Z,74.31
2019-02-14T16:45:04.437Z,74.51
2019-02-14T16:47:35.824Z,74.36
2019-02-14T16:50:08.109Z,74.46
2019-02-14T16:52:39.499Z,74.91
2019-02-14T16:55:11.010Z,75.36
2019-02-14T16:57:42.450Z,75.62
2019-02-14T17:00:14.159Z,76.31
2019-02-14T17:02:45.852Z,76.29
2019-02-14T17:05:17.514Z,76.45
2019-02-14T17:07:49.101Z,76.59
2019-02-14T17:10:20.702Z,76.34
2019-02-14T17:12:52.082Z,76.22
2019-02-14T17:15:23.356Z,76.28
2019-02-14T17:17:54.840Z,76.42
2019-02-14T17:20:26.135Z,76.60
2019-02-14T17:22:57.635Z,76.70
2019-02-14T17:25:29.381Z,77.13
2019-02-14T17:28:01.029Z,77.21
2019-02-14T17:30:32.538Z,77.31
2019-02-14T17:33:03.878Z,77.32
2019-02-14T17:35:35.173Z,77.09
2019-02-14T17:38:06.634Z,77.49
2019-02-14T17:40:45.825Z,77.92
2019-02-14T17:43:10.990Z,78.18
2019-02-14T17:45:42.496Z,77.90
2019-02-14T17:48:14.150Z,78.08
2019-02-14T17:50:45.686Z,77.96
2019-02-14T17:53:17.153Z,77.75
2019-02-14T17:55:48.777Z,78.07
2019-02-14T17:58:20.410Z,77.69
2019-02-14T18:00:51.709Z,77.39
2019-02-14T18:03:24.417Z,77.28
2019-02-14T18:05:56.078Z,77.89
2019-02-14T18:08:27.521Z,78.05
2019-02-14T18:10:58.735Z,78.36
2019-02-14T18:13:29.976Z,78.43
2019-02-14T18:16:01.514Z,78.48
2019-02-14T18:18:32.900Z,78.46
2019-02-14T18:21:04.375Z,77.85
2019-02-14T18:23:35.603Z,78.07
2019-02-14T18:26:06.959Z,77.67
2019-02-14T18:28:38.293Z,77.08
2019-02-14T18:31:09.811Z,77.47
2019-02-14T18:33:41.283Z,78.00
2019-02-14T18:36:12.886Z,78.35
2019-02-14T18:38:44.702Z,78.02
2019-02-14T18:41:16.049Z,78.16
2019-02-14T18:43:47.589Z,78.34
2019-02-14T18:46:19.230Z,78.07
2019-02-14T18:48:50.708Z,78.17
2019-02-14T18:51:22.383Z,77.78
2019-02-14T18:53:53.626Z,78.06
2019-02-14T18:56:24.924Z,78.53
2019-02-14T18:58:57.443Z,78.58
2019-02-14T19:01:29.290Z,78.97
2019-02-14T19:04:00.541Z,78.96
2019-02-14T19:06:32.092Z,78.73
2019-02-14T19:09:04.870Z,78.43
2019-02-14T19:11:36.928Z,78.47
2019-02-14T19:14:09.244Z,78.26
2019-02-14T19:16:40.603Z,77.75
2019-02-14T19:19:13.054Z,78.17
2019-02-14T19:21:44.627Z,78.04
2019-02-14T19:24:16.149Z,77.84
2019-02-14T19:26:47.785Z,77.87
2019-02-14T19:29:19.437Z,77.90
2019-02-14T19:31:50.885Z,77.93
2019-02-14T19:34:22.227Z,78.01
2019-02-14T19:36:53.858Z,77.57
2019-02-14T19:39:25.295Z,77.38
2019-02-14T19:41:56.792Z,77.19
2019-02-14T19:44:28.029Z,77.29
2019-02-14T19:46:59.285Z,77.01
2019-02-14T19:49:30.771Z,76.55
2019-02-14T19:52:02.108Z,76.18
2019-02-14T19:54:33.428Z,76.47
2019-02-14T19:57:05.243Z,76.19
2019-02-14T19:59:36.687Z,76.20
2019-02-14T20:02:08.018Z,75.67
2019-02-14T20:04:40.376Z,75.85
2019-02-14T20:07:11.813Z,76.21
2019-02-14T20:09:43.093Z,76.35
2019-02-14T20:12:14.357Z,76.07
2019-02-14T20:14:45.580Z,76.45
2019-02-14T20:17:18.352Z,76.26
2019-02-14T20:19:49.594Z,75.87
2019-02-14T20:22:21.221Z,75.89
2019-02-14T20:24:52.745Z,75.69
2019-02-14T20:27:24.325Z,75.58
2019-02-14T20:29:55.935Z,75.87
2019-02-14T20:32:27.445Z,75.51
2019-02-14T20:35:01.443Z,75.17
2019-02-14T20:37:32.028Z,75.62
2019-02-14T20:40:05.536Z,75.67
2019-02-14T20:42:37.164Z,75.39
2019-02-14T20:45:09.250Z,75.97
2019-02-14T20:47:40.938Z,75.57
2019-02-14T20:50:13.097Z,75.72
2019-02-14T20:52:44.583Z,75.58
2019-02-14T20:55:16.730Z,75.93
2019-02-14T20:57:48.248Z,75.35
2019-02-14T21:00:28.928Z,75.50
2019-02-14T21:03:00.240Z,75.18
2019-02-14T21:05:32.023Z,75.11
2019-02-14T21:08:04.751Z,75.29
2019-02-14T21:10:35.987Z,75.10
2019-02-14T21:13:07.349Z,75.11
2019-02-14T21:15:38.989Z,74.69
2019-02-14T21:18:10.298Z,74.50
2019-02-14T21:20:41.889Z,74.53
2019-02-14T21:23:13.190Z,75.12
2019-02-14T21:25:44.644Z,74.74
2019-02-14T21:28:16.138Z,74.82
2019-02-14T21:30:47.548Z,74.87
2019-02-14T21:33:18.770Z,75.20
2019-02-14T21:35:50.367Z,74.94
2019-02-14T21:38:21.559Z,75.31
2019-02-14T21:40:52.923Z,75.67
2019-02-14T21:43:24.166Z,74.95
2019-02-14T21:45:55.885Z,74.96
2019-02-14T21:48:27.439Z,75.28
2019-02-14T21:50:58.733Z,75.55
2019-02-14T21:53:29.977Z,75.28
2019-02-14T21:56:01.404Z,75.27
2019-02-14T21:58:33.168Z,75.28
2019-02-14T22:01:04.744Z,75.29
2019-02-14T22:03:36.448Z,75.36
2019-02-14T22:06:07.864Z,75.18
2019-02-14T22:08:39.444Z,75.43
2019-02-14T22:11:10.699Z,75.24
2019-02-14T22:13:41.927Z,75.54
2019-02-14T22:16:13.233Z,75.79
2019-02-14T22:18:44.619Z,76.08
2019-02-14T22:21:16.139Z,75.73
2019-02-14T22:23:47.348Z,75.75
2019-02-14T22:26:18.897Z,75.59
2019-02-14T22:28:50.376Z,75.51
2019-02-14T22:31:21.980Z,75.37
2019-02-14T22:33:53.458Z,75.69
2019-02-14T22:36:25.009Z,75.25
2019-02-14T22:38:56.576Z,75.49
2019-02-14T22:41:28.067Z,75.31
2019-02-14T22:43:59.352Z,75.14
2019-02-14T22:46:30.571Z,76.02
2019-02-14T22:49:02.075Z,76.07
2019-02-14T22:51:33.406Z,76.36
2019-02-14T22:54:05.064Z,76.58
2019-02-14T22:56:36.649Z,76.58
2019-02-14T22:59:08.419Z,76.45
2019-02-14T23:01:40.713Z,76.28
2019-02-14T23:04:12.325Z,76.27
2019-02-14T23:06:44.142Z,75.85
2019-02-14T23:09:16.211Z,75.50
2019-02-14T23:11:47.869Z,75.71
2019-02-14T23:14:19.423Z,75.47
2019-02-14T23:16:51.090Z,75.65
2019-02-14T23:19:22.508Z,75.71
2019-02-14T23:21:54.065Z,75.51
2019-02-14T23:24:25.558Z,75.21
2019-02-14T23:26:56.946Z,74.79
2019-02-14T23:29:28.539Z,74.34
2019-02-14T23:31:59.885Z,73.93
2019-02-14T23:34:31.401Z,74.21
2019-02-14T23:37:02.605Z,74.07
2019-02-14T23:39:34.226Z,73.86
2019-02-14T23:42:05.612Z,74.01
2019-02-14T23:44:36.841Z,74.10
2019-02-14T23:47:08.034Z,73.71
2019-02-14T23:49:39.562Z,73.42
2019-02-14T23:52:11.169Z,74.01
2019-02-14T23:54:42.667Z,74.03
2019-02-14T23:57:14.012Z,74.11
2019-02-14T23:59:45.541Z,73.47
